Time;durP1;ratioP1;P1;durP2;ratioP2;P2;SDS_P1;SDS_P2;PMS_P1;PMS_P2;Temp;Humidity;BMP_temperature;BMP_pressure;BME280_temperature;BME280_humidity;BME280_pressure;Samples;Min_cycle;Max_cycle;Signal;HPM_P1;HPM_P2
2021/12/09 14:01:52;;;;;;;66.20;28.70;;;;;;;;;;5131824;27;1261444;-81
2021/12/09 14:04:21;;;;;;;61.23;32.50;;;;;;;;;;5133618;27;20051;-79
2021/12/09 14:07:23;;;;;;;59.70;32.10;;;;;;;;;;5149335;27;20089;-77
2021/12/09 14:09:44;;;;;;;62.47;31.23;;;;;;;;;;5141988;27;20138;-81
2021/12/09 14:12:10;;;;;;;61.23;32.03;;;;;;;;;;5130270;27;20054;-82
2021/12/09 14:14:45;;;;;;;52.00;31.13;;;;;;;;;;5131098;27;20039;-85
2021/12/09 14:17:15;;;;;;;61.67;31.20;;;;;;;;;;5146724;27;20070;-78
2021/12/09 14:20:00;;;;;;;54.10;31.13;;;;;;;;;;5130483;27;20138;-80
2021/12/09 14:22:26;;;;;;;49.73;28.57;;;;;;;;;;5148723;27;20051;-79
2021/12/09 14:24:52;;;;;;;54.90;28.67;;;;;;;;;;5150310;27;20103;-82
2021/12/09 14:27:20;;;;;;;59.95;27.65;;;;;;;;;;5131692;27;20042;-86
2021/12/09 14:29:48;;;;;;;58.93;27.43;;;;;;;;;;5135601;27;20118;-77
2021/12/09 14:32:14;;;;;;;57.83;27.83;;;;;;;;;;5129482;27;20059;-79
2021/12/09 14:34:44;;;;;;;54.33;26.40;;;;;;;;;;5148205;27;20487;-76
2021/12/09 14:37:13;;;;;;;53.90;27.07;;;;;;;;;;5148317;27;20051;-77
2021/12/09 14:39:39;;;;;;;57.10;26.73;;;;;;;;;;5130080;27;20065;-78
2021/12/09 14:42:05;;;;;;;53.00;26.42;;;;;;;;;;5156427;27;20042;-80
2021/12/09 14:44:32;;;;;;;55.20;26.67;;;;;;;;;;5163156;27;20046;-83
2021/12/09 14:46:58;;;;;;;;;;;;;;;;;;5150980;27;20074;-83
2021/12/09 14:49:25;;;;;;;50.40;25.60;;;;;;;;;;5124308;27;20325;-75
2021/12/09 14:51:52;;;;;;;55.97;27.13;;;;;;;;;;5146447;27;20043;-75
2021/12/09 14:54:19;;;;;;;44.37;26.57;;;;;;;;;;5138220;27;20052;-75
2021/12/09 14:56:48;;;;;;;50.10;26.17;;;;;;;;;;5130413;27;20503;-74
2021/12/09 14:59:14;;;;;;;48.90;26.30;;;;;;;;;;5146255;27;20068;-75
2021/12/09 15:01:41;;;;;;;47.17;26.63;;;;;;;;;;5148694;27;20054;-73
2021/12/09 15:04:14;;;;;;;56.33;26.47;;;;;;;;;;5149770;27;20038;-71
2021/12/09 15:06:43;;;;;;;53.23;25.63;;;;;;;;;;5148452;27;20098;-76
2021/12/09 15:09:15;;;;;;;53.87;27.17;;;;;;;;;;5149522;27;20086;-75
2021/12/09 15:11:46;;;;;;;49.23;26.50;;;;;;;;;;5126060;27;20424;-71
2021/12/09 15:14:17;;;;;;;50.43;26.37;;;;;;;;;;5134983;27;20045;-78
2021/12/09 15:16:43;;;;;;;52.93;27.13;;;;;;;;;;5100569;27;20134;-75
2021/12/09 15:19:19;;;;;;;53.00;26.08;;;;;;;;;;5117682;27;20051;-79
2021/12/09 15:22:02;;;;;;;47.50;25.65;;;;;;;;;;5099810;27;20092;-79
2021/12/09 15:24:28;;;;;;;50.77;27.17;;;;;;;;;;5135769;27;20082;-76
2021/12/09 15:26:54;;;;;;;50.92;25.98;;;;;;;;;;5118670;27;20112;-79
2021/12/09 15:29:22;;;;;;;46.55;27.55;;;;;;;;;;5117496;27;20066;-75
2021/12/09 15:31:54;;;;;;;53.90;26.47;;;;;;;;;;5135610;27;20043;-75
2021/12/09 15:34:24;;;;;;;49.47;26.47;;;;;;;;;;5117667;27;20077;-76
2021/12/09 15:36:58;;;;;;;53.37;28.10;;;;;;;;;;5118052;27;20456;-78
2021/12/09 15:39:26;;;;;;;55.93;27.57;;;;;;;;;;5135712;27;20089;-79
2021/12/09 15:42:00;;;;;;;52.37;28.20;;;;;;;;;;5135655;27;20130;-85
2021/12/09 15:44:26;;;;;;;49.43;26.97;;;;;;;;;;5135160;27;20066;-76
2021/12/09 15:46:54;;;;;;;52.20;28.75;;;;;;;;;;5135706;27;20047;-73
2021/12/09 15:49:22;;;;;;;48.40;27.67;;;;;;;;;;5135482;27;20099;-78
2021/12/09 15:51:49;;;;;;;49.30;27.33;;;;;;;;;;5135690;27;20043;-80
2021/12/09 15:54:20;;;;;;;55.50;30.10;;;;;;;;;;5135229;27;20047;-76
2021/12/09 15:56:49;;;;;;;55.60;27.30;;;;;;;;;;5134729;27;20134;-79
2021/12/09 15:59:17;;;;;;;51.63;28.03;;;;;;;;;;5133964;27;20125;-80
2021/12/09 16:01:45;;;;;;;50.53;27.60;;;;;;;;;;5140167;27;20139;-84
2021/12/09 16:04:11;;;;;;;52.00;28.33;;;;;;;;;;5134375;27;20107;-74
2021/12/09 16:06:37;;;;;;;54.45;28.08;;;;;;;;;;5108039;27;20130;-77
2021/12/09 16:09:04;;;;;;;55.42;28.75;;;;;;;;;;5117494;27;20473;-74
2021/12/09 16:11:31;;;;;;;59.17;31.53;;;;;;;;;;5133002;27;20043;-73
2021/12/09 16:14:00;;;;;;;58.42;31.50;;;;;;;;;;5115308;27;20509;-74
2021/12/09 16:16:29;;;;;;;62.25;33.35;;;;;;;;;;5115864;27;20047;-76
2021/12/09 16:18:59;;;;;;;51.28;28.67;;;;;;;;;;5110972;27;20055;-74
2021/12/09 16:21:42;;;;;;;53.20;29.13;;;;;;;;;;5136142;27;20034;-82
2021/12/09 16:24:15;;;;;;;60.57;31.23;;;;;;;;;;5133832;27;20054;-82
2021/12/09 16:26:41;;;;;;;61.57;30.83;;;;;;;;;;5115206;27;20421;-76
2021/12/09 16:29:07;;;;;;;56.95;29.30;;;;;;;;;;5115739;27;20482;-76
2021/12/09 16:31:34;;;;;;;55.38;29.00;;;;;;;;;;5109739;27;20055;-78
2021/12/09 16:34:00;;;;;;;59.65;30.38;;;;;;;;;;5129719;27;20047;-80
2021/12/09 16:36:26;;;;;;;54.58;29.20;;;;;;;;;;5132329;27;20065;-78
2021/12/09 16:38:52;;;;;;;55.08;31.60;;;;;;;;;;5133569;27;20552;-79
2021/12/09 16:41:19;;;;;;;56.17;30.45;;;;;;;;;;5111691;27;20573;-74
2021/12/09 16:43:45;;;;;;;53.92;28.80;;;;;;;;;;5132958;27;20054;-77
2021/12/09 16:46:11;;;;;;;54.53;28.80;;;;;;;;;;5107782;27;20038;-76
2021/12/09 16:48:38;;;;;;;54.25;29.45;;;;;;;;;;5124914;27;20044;-73
2021/12/09 16:51:06;;;;;;;55.60;29.02;;;;;;;;;;5104177;27;20084;-74
2021/12/09 16:53:43;;;;;;;53.57;30.00;;;;;;;;;;5125891;27;20039;-71
2021/12/09 16:56:22;;;;;;;57.58;29.92;;;;;;;;;;5115281;27;20050;-75
2021/12/09 16:58:58;;;;;;;55.53;29.87;;;;;;;;;;5133880;27;20069;-77
2021/12/09 17:01:25;;;;;;;55.53;31.07;;;;;;;;;;5142272;27;20054;-70
2021/12/09 17:03:51;;;;;;;;;;;;;;;;;;5132938;27;20043;-82
2021/12/09 17:06:17;;;;;;;57.40;31.60;;;;;;;;;;5139797;27;20293;-77
2021/12/09 17:08:43;;;;;;;51.20;29.73;;;;;;;;;;5144576;27;20046;-77
2021/12/09 17:11:09;;;;;;;59.60;32.60;;;;;;;;;;5135522;27;20410;-76
2021/12/09 17:13:38;;;;;;;62.83;31.57;;;;;;;;;;5123809;27;20039;-74
2021/12/09 17:16:05;;;;;;;56.10;30.45;;;;;;;;;;5133244;27;20035;-69
2021/12/09 17:18:31;;;;;;;56.55;31.67;;;;;;;;;;5132236;27;20039;-75
2021/12/09 17:20:57;;;;;;;;;;;;;;;;;;5078998;28;20039;-76
2021/12/09 17:23:24;;;;;;;62.20;33.33;;;;;;;;;;5115684;27;19920;-75
2021/12/09 17:25:50;;;;;;;;;;;;;;;;;;5124247;27;20051;-77
2021/12/09 17:28:19;;;;;;;57.27;31.80;;;;;;;;;;5132871;27;20419;-71
2021/12/09 17:30:49;;;;;;;60.77;30.87;;;;;;;;;;5127241;27;20056;-70
2021/12/09 17:33:16;;;;;;;62.80;32.17;;;;;;;;;;5130272;27;20406;-70
2021/12/09 17:35:42;;;;;;;63.37;32.57;;;;;;;;;;5128193;27;20051;-71
2021/12/09 17:38:09;;;;;;;60.83;31.47;;;;;;;;;;5126073;27;20046;-76
2021/12/09 17:40:35;;;;;;;61.05;31.02;;;;;;;;;;5129019;27;20073;-71
2021/12/09 17:43:01;;;;;;;;;;;;;;;;;;5129907;27;20403;-73
2021/12/09 17:45:27;;;;;;;55.60;32.03;;;;;;;;;;5133205;27;19919;-75
2021/12/09 17:47:55;;;;;;;57.22;31.13;;;;;;;;;;5131285;27;20043;-72
2021/12/09 17:50:22;;;;;;;67.72;31.70;;;;;;;;;;5090274;27;20491;-70
2021/12/09 17:52:52;;;;;;;59.93;32.03;;;;;;;;;;5125778;27;20051;-72
2021/12/09 17:55:19;;;;;;;61.25;33.20;;;;;;;;;;5114947;28;20058;-75
2021/12/09 17:57:45;;;;;;;;;;;;;;;;;;5132417;27;20119;-75
2021/12/09 18:00:14;;;;;;;55.38;30.40;;;;;;;;;;5129064;27;19919;-79
2021/12/09 18:02:40;;;;;;;63.20;34.40;;;;;;;;;;5128461;27;20047;-77
2021/12/09 18:05:06;;;;;;;;;;;;;;;;;;5132239;27;20406;-71
2021/12/09 18:07:33;;;;;;;65.57;32.80;;;;;;;;;;5127015;27;19919;-69
2021/12/09 18:09:59;;;;;;;61.03;32.95;;;;;;;;;;5131440;27;20111;-75
2021/12/09 18:12:29;;;;;;;61.53;32.30;;;;;;;;;;5132549;28;20061;-73
2021/12/09 18:14:55;;;;;;;61.35;33.03;;;;;;;;;;5111954;28;20398;-71
2021/12/09 18:17:29;;;;;;;65.07;34.58;;;;;;;;;;5132729;28;20579;-77
2021/12/09 18:19:55;;;;;;;68.93;34.67;;;;;;;;;;5129520;27;21565;-74
2021/12/09 18:22:22;;;;;;;62.42;32.90;;;;;;;;;;5094369;28;20432;-73
2021/12/09 18:24:48;;;;;;;62.47;32.10;;;;;;;;;;5092502;28;20051;-77
2021/12/09 18:27:14;;;;;;;61.65;32.78;;;;;;;;;;5105539;28;20053;-78
2021/12/09 18:29:40;;;;;;;70.47;32.72;;;;;;;;;;5089672;28;20434;-77
2021/12/09 18:32:07;;;;;;;63.33;34.20;;;;;;;;;;5127544;27;20383;-78
2021/12/09 18:34:34;;;;;;;59.90;31.90;;;;;;;;;;5126419;27;20904;-77
2021/12/09 18:37:01;;;;;;;64.03;33.87;;;;;;;;;;5128787;28;20082;-78
2021/12/09 18:39:31;;;;;;;61.05;33.83;;;;;;;;;;5129687;27;20065;-79
2021/12/09 18:41:58;;;;;;;61.55;34.00;;;;;;;;;;5128929;27;20031;-73
2021/12/09 18:44:30;;;;;;;63.90;33.93;;;;;;;;;;5107586;28;20126;-72
2021/12/09 18:46:56;;;;;;;74.63;36.05;;;;;;;;;;5124959;27;20046;-80
2021/12/09 18:49:22;;;;;;;70.03;34.50;;;;;;;;;;5113021;27;20040;-73
2021/12/09 18:51:51;;;;;;;75.73;37.20;;;;;;;;;;5125569;27;20058;-71
2021/12/09 18:54:18;;;;;;;68.65;35.55;;;;;;;;;;5127016;27;20470;-74
2021/12/09 18:56:45;;;;;;;63.60;34.70;;;;;;;;;;5128483;27;20195;-71
2021/12/09 18:59:11;;;;;;;;;;;;;;;;;;5132580;27;20043;-76
2021/12/09 19:01:39;;;;;;;63.88;34.45;;;;;;;;;;5119067;27;19943;-77
2021/12/09 19:04:09;;;;;;;70.93;34.65;;;;;;;;;;5126234;27;20047;-80
2021/12/09 19:06:40;;;;;;;67.17;34.47;;;;;;;;;;5113963;27;20130;-73
2021/12/09 19:09:06;;;;;;;72.68;35.97;;;;;;;;;;5135042;27;20080;-78
2021/12/09 19:11:32;;;;;;;65.00;35.55;;;;;;;;;;5100051;27;20047;-79
2021/12/09 19:13:58;;;;;;;68.20;34.33;;;;;;;;;;5132134;27;20104;-84
2021/12/09 19:16:37;;;;;;;73.78;38.38;;;;;;;;;;5098347;27;20053;-78
2021/12/09 19:19:04;;;;;;;71.23;34.97;;;;;;;;;;5111845;27;20088;-76
2021/12/09 19:21:30;;;;;;;68.93;36.10;;;;;;;;;;5134511;27;20440;-75
2021/12/09 19:23:56;;;;;;;63.95;33.63;;;;;;;;;;5116468;27;20040;-72
2021/12/09 19:26:23;;;;;;;81.18;37.38;;;;;;;;;;5134608;27;20042;-79
2021/12/09 19:28:49;;;;;;;68.35;35.33;;;;;;;;;;5113768;27;20407;-80
2021/12/09 19:31:16;;;;;;;67.68;36.47;;;;;;;;;;5131486;27;20032;-80
2021/12/09 19:33:43;;;;;;;67.67;36.30;;;;;;;;;;5134001;27;20047;-73
2021/12/09 19:36:10;;;;;;;64.30;34.85;;;;;;;;;;5116548;27;20039;-76
2021/12/09 19:38:37;;;;;;;66.68;35.85;;;;;;;;;;5135883;27;20191;-77
2021/12/09 19:41:06;;;;;;;64.15;34.53;;;;;;;;;;5133151;27;20639;-79
2021/12/09 19:43:33;;;;;;;73.47;36.70;;;;;;;;;;5135393;27;20070;-79
2021/12/09 19:45:59;;;;;;;73.27;37.97;;;;;;;;;;5116132;27;20474;-79
2021/12/09 19:48:25;;;;;;;76.97;39.08;;;;;;;;;;5133665;27;20035;-71
2021/12/09 19:50:53;;;;;;;86.32;40.42;;;;;;;;;;5129843;27;20055;-71
2021/12/09 19:53:19;;;;;;;79.38;38.38;;;;;;;;;;5134834;27;20129;-70
2021/12/09 19:55:46;;;;;;;93.97;39.50;;;;;;;;;;5133820;27;20055;-71
2021/12/09 19:58:12;;;;;;;;;;;;;;;;;;5115075;27;20043;-73
2021/12/09 20:00:39;;;;;;;89.67;40.47;;;;;;;;;;5126616;27;20006;-70
2021/12/09 20:03:06;;;;;;;83.70;41.57;;;;;;;;;;5121202;27;20062;-69
2021/12/09 20:05:33;;;;;;;107.37;42.23;;;;;;;;;;5129860;27;20058;-74
2021/12/09 20:07:59;;;;;;;83.37;41.43;;;;;;;;;;5132831;27;20087;-70
2021/12/09 20:10:26;;;;;;;;;;;;;;;;;;5126682;27;20469;-71
2021/12/09 20:12:53;;;;;;;82.60;42.40;;;;;;;;;;5112566;27;19928;-69
2021/12/09 20:15:19;;;;;;;85.23;39.43;;;;;;;;;;5126891;27;20479;-85
2021/12/09 20:17:46;;;;;;;89.63;39.75;;;;;;;;;;5127258;27;20046;-72
2021/12/09 20:20:13;;;;;;;88.80;40.00;;;;;;;;;;5102257;27;20042;-70
2021/12/09 20:22:40;;;;;;;79.50;39.70;;;;;;;;;;5114118;27;20039;-75
2021/12/09 20:25:08;;;;;;;77.57;37.03;;;;;;;;;;5126189;27;20039;-69
2021/12/09 20:27:35;;;;;;;78.03;39.37;;;;;;;;;;5131537;27;20040;-70
2021/12/09 20:30:01;;;;;;;93.53;39.70;;;;;;;;;;5133472;27;20036;-69
2021/12/09 20:32:28;;;;;;;81.57;40.55;;;;;;;;;;5133331;27;20043;-74
2021/12/09 20:34:54;;;;;;;79.20;38.63;;;;;;;;;;5131076;27;20047;-71
2021/12/09 20:37:20;;;;;;;80.32;38.00;;;;;;;;;;5128473;27;20505;-72
2021/12/09 20:39:46;;;;;;;81.20;37.80;;;;;;;;;;5109198;27;20039;-73
2021/12/09 20:42:12;;;;;;;89.03;39.70;;;;;;;;;;5132579;27;20067;-73
2021/12/09 20:44:39;;;;;;;79.43;37.70;;;;;;;;;;5129574;27;20092;-72
2021/12/09 20:47:05;;;;;;;86.82;39.25;;;;;;;;;;5113406;27;20043;-70
2021/12/09 20:49:32;;;;;;;93.55;39.75;;;;;;;;;;5125862;27;20043;-70
2021/12/09 20:51:58;;;;;;;;;;;;;;;;;;5108046;27;20036;-72
2021/12/09 20:54:24;;;;;;;80.40;40.17;;;;;;;;;;5130231;27;19929;-72
2021/12/09 20:56:51;;;;;;;78.82;38.85;;;;;;;;;;5106696;28;20050;-75
2021/12/09 20:59:18;;;;;;;81.55;39.53;;;;;;;;;;5132405;27;20043;-75
2021/12/09 21:01:44;;;;;;;;;;;;;;;;;;5125998;27;20063;-71
2021/12/09 21:04:10;;;;;;;84.47;40.17;;;;;;;;;;5119889;27;19919;-71
2021/12/09 21:06:37;;;;;;;89.93;41.42;;;;;;;;;;5118553;27;20043;-77
2021/12/09 21:09:03;;;;;;;88.07;40.20;;;;;;;;;;5086442;27;20043;-68
2021/12/09 21:11:30;;;;;;;81.90;41.50;;;;;;;;;;5124521;27;20035;-74
2021/12/09 21:14:00;;;;;;;87.40;40.85;;;;;;;;;;5099180;28;20039;-69
2021/12/09 21:16:27;;;;;;;85.83;41.10;;;;;;;;;;5129567;27;20057;-75
2021/12/09 21:18:53;;;;;;;83.07;40.87;;;;;;;;;;5133943;27;20051;-75
2021/12/09 21:21:20;;;;;;;84.97;42.23;;;;;;;;;;5110793;27;20134;-74
2021/12/09 21:23:46;;;;;;;79.60;39.97;;;;;;;;;;5133652;27;20046;-77
2021/12/09 21:26:13;;;;;;;82.97;41.00;;;;;;;;;;5128959;27;20071;-81
2021/12/09 21:28:40;;;;;;;91.13;42.22;;;;;;;;;;5123366;27;20483;-73
2021/12/09 21:31:07;;;;;;;85.25;40.75;;;;;;;;;;5128051;27;20112;-73
2021/12/09 21:33:41;;;;;;;79.53;40.33;;;;;;;;;;5132912;27;20043;-83
2021/12/09 21:36:09;;;;;;;78.10;40.07;;;;;;;;;;5088842;27;20043;-74
2021/12/09 21:38:35;;;;;;;81.10;40.28;;;;;;;;;;5105725;27;20039;-72
2021/12/09 21:41:01;;;;;;;;;;;;;;;;;;5127142;27;20036;-73
2021/12/09 21:43:28;;;;;;;88.35;40.58;;;;;;;;;;5113057;27;19941;-76
2021/12/09 21:45:55;;;;;;;101.03;42.95;;;;;;;;;;5133104;27;20571;-74
2021/12/09 21:48:21;;;;;;;85.90;41.30;;;;;;;;;;5125698;27;20125;-71
2021/12/09 21:50:47;;;;;;;88.28;40.72;;;;;;;;;;5116753;27;20039;-77
2021/12/09 21:53:13;;;;;;;84.47;40.92;;;;;;;;;;5130614;27;20043;-73
2021/12/09 21:55:40;;;;;;;96.00;41.47;;;;;;;;;;5106888;27;20103;-76
2021/12/09 21:58:06;;;;;;;93.63;41.60;;;;;;;;;;5124308;27;20479;-71
2021/12/09 22:00:34;;;;;;;94.22;40.47;;;;;;;;;;5130343;27;20093;-73
2021/12/09 22:03:00;;;;;;;92.57;40.10;;;;;;;;;;5132183;27;20058;-77
2021/12/09 22:05:31;;;;;;;83.15;42.45;;;;;;;;;;5127249;27;20441;-75
2021/12/09 22:07:57;;;;;;;80.97;40.80;;;;;;;;;;5123010;27;20040;-74
2021/12/09 22:10:24;;;;;;;81.17;42.50;;;;;;;;;;5131506;28;20035;-73
2021/12/09 22:12:52;;;;;;;91.13;42.00;;;;;;;;;;5103669;28;20048;-73
2021/12/09 22:15:22;;;;;;;92.80;44.03;;;;;;;;;;5126738;28;20119;-76
2021/12/09 22:17:49;;;;;;;88.13;41.03;;;;;;;;;;5112516;28;20122;-76
2021/12/09 22:20:16;;;;;;;89.63;41.33;;;;;;;;;;5118139;28;20044;-73
2021/12/09 22:22:42;;;;;;;90.87;43.27;;;;;;;;;;5116345;27;20035;-72
2021/12/09 22:25:09;;;;;;;80.60;40.38;;;;;;;;;;5111478;27;20078;-71
2021/12/09 22:27:35;;;;;;;87.45;41.70;;;;;;;;;;5150061;27;20542;-72
2021/12/09 22:30:01;;;;;;;83.07;40.60;;;;;;;;;;5117477;27;20126;-72
2021/12/09 22:32:27;;;;;;;;;;;;;;;;;;5117440;27;20038;-72
2021/12/09 22:34:53;;;;;;;88.03;41.67;;;;;;;;;;5148534;27;19919;-71
2021/12/09 22:37:19;;;;;;;81.95;41.55;;;;;;;;;;5149984;27;20059;-73
2021/12/09 22:39:46;;;;;;;83.03;42.13;;;;;;;;;;5133153;27;20068;-72
2021/12/09 22:42:12;;;;;;;94.43;42.87;;;;;;;;;;5130422;27;20099;-71
2021/12/09 22:44:41;;;;;;;88.63;41.78;;;;;;;;;;5127429;27;20042;-75
2021/12/09 22:47:08;;;;;;;88.70;43.83;;;;;;;;;;5147393;27;20074;-72
2021/12/09 22:49:42;;;;;;;85.27;41.60;;;;;;;;;;5157799;27;20039;-85
2021/12/09 22:52:09;;;;;;;89.47;43.53;;;;;;;;;;5157361;27;20053;-79
2021/12/09 22:54:36;;;;;;;88.20;42.70;;;;;;;;;;5141932;27;20069;-75
2021/12/09 22:57:03;;;;;;;85.88;40.63;;;;;;;;;;5118682;27;20078;-74
2021/12/09 22:59:29;;;;;;;93.07;42.47;;;;;;;;;;5118230;27;20047;-73
2021/12/09 23:01:55;;;;;;;84.20;41.38;;;;;;;;;;5117719;27;20091;-84
2021/12/09 23:04:22;;;;;;;83.80;39.50;;;;;;;;;;5118017;27;20118;-77
2021/12/09 23:06:49;;;;;;;82.35;41.22;;;;;;;;;;5136751;27;20043;-79
2021/12/09 23:09:16;;;;;;;82.75;39.63;;;;;;;;;;5136044;27;20054;-76
2021/12/09 23:11:45;;;;;;;77.97;41.42;;;;;;;;;;5136236;27;20043;-76
2021/12/09 23:14:27;;;;;;;85.37;39.17;;;;;;;;;;5135984;27;20395;-72
2021/12/09 23:16:54;;;;;;;84.03;40.35;;;;;;;;;;5118275;27;20053;-78
2021/12/09 23:19:21;;;;;;;82.10;41.38;;;;;;;;;;5135971;27;20051;-73
2021/12/09 23:21:48;;;;;;;83.63;40.33;;;;;;;;;;5117077;27;20137;-74
2021/12/09 23:24:15;;;;;;;80.83;39.60;;;;;;;;;;5136031;27;20049;-80
2021/12/09 23:26:41;;;;;;;78.32;39.75;;;;;;;;;;5136230;27;20134;-77
2021/12/09 23:29:07;;;;;;;82.50;39.22;;;;;;;;;;5136162;27;20078;-76
2021/12/09 23:31:33;;;;;;;;;;;;;;;;;;5135473;27;20088;-77
2021/12/09 23:33:59;;;;;;;76.55;39.25;;;;;;;;;;5135439;27;19919;-72
2021/12/09 23:36:27;;;;;;;77.28;39.10;;;;;;;;;;5135536;27;20047;-73
2021/12/09 23:38:54;;;;;;;82.87;38.67;;;;;;;;;;5136112;27;20047;-80
2021/12/09 23:41:21;;;;;;;78.00;38.67;;;;;;;;;;5118399;27;20047;-72
2021/12/09 23:43:53;;;;;;;83.63;38.35;;;;;;;;;;5120499;27;20047;-72
2021/12/09 23:46:19;;;;;;;70.38;37.42;;;;;;;;;;5155962;27;20046;-84
2021/12/09 23:48:45;;;;;;;;;;;;;;;;;;5157033;27;20093;-79
2021/12/09 23:51:11;;;;;;;83.40;38.60;;;;;;;;;;5156849;27;19919;-79
2021/12/09 23:53:37;;;;;;;76.07;36.28;;;;;;;;;;5137867;27;20053;-77
2021/12/09 23:56:03;;;;;;;70.43;35.03;;;;;;;;;;5156428;27;20050;-74
2021/12/09 23:58:30;;;;;;;70.80;35.55;;;;;;;;;;5156059;27;20049;-76
